Time;durP1;ratioP1;P1;durP2;ratioP2;P2;SDS_P1;SDS_P2;PMS_P1;PMS_P2;Temp;Humidity;BMP_temperature;BMP_pressure;BME280_temperature;BME280_humidity;BME280_pressure;Samples;Min_cycle;Max_cycle;Signal;HPM_P1;HPM_P2
2023/05/28 00:03:08;;;;;;;7.50;5.00;;;;;;;9.44;88.08;100846.91;181384;1263;57975;-55
2023/05/28 00:07:12;;;;;;;6.30;4.30;;;;;;;9.40;87.52;100844.84;181465;1261;43403;-55
2023/05/28 00:11:15;;;;;;;6.80;4.60;;;;;;;9.36;88.05;100845.70;181379;1261;43745;-56
2023/05/28 00:15:19;;;;;;;4.60;3.30;;;;;;;9.33;88.30;100846.05;181320;1262;43059;-58
2023/05/28 00:19:22;;;;;;;15.80;4.20;;;;;;;9.28;88.03;100846.23;181344;1260;43105;-55
2023/05/28 00:23:25;;;;;;;6.50;4.50;;;;;;;9.21;88.64;100846.11;181383;1265;58227;-55
2023/05/28 00:27:57;;;;;;;7.30;4.50;;;;;;;9.17;89.05;100844.81;181421;1260;43770;-54
2023/05/28 00:32:00;;;;;;;6.30;5.70;;;;;;;9.16;89.74;100844.36;181414;1265;44309;-56
2023/05/28 00:36:03;;;;;;;6.00;3.80;;;;;;;9.15;89.95;100842.64;181405;1262;43598;-56
2023/05/28 00:40:07;;;;;;;6.10;3.90;;;;;;;9.12;89.83;100833.33;181346;1266;43485;-56
2023/05/28 00:44:11;;;;;;;9.60;5.20;;;;;;;9.08;89.74;100831.42;181366;1261;58077;-56
2023/05/28 00:48:27;;;;;;;8.20;5.70;;;;;;;9.05;89.57;100829.31;181410;1260;43579;-56
2023/05/28 00:52:29;;;;;;;9.40;5.50;;;;;;;9.03;90.04;100824.67;181374;1260;43068;-57
2023/05/28 00:56:46;;;;;;;11.10;5.30;;;;;;;9.00;90.40;100824.88;181406;1260;43039;-57
2023/05/28 01:00:49;;;;;;;7.40;4.90;;;;;;;8.95;90.93;100822.73;181357;1261;44057;-57
2023/05/28 01:04:59;;;;;;;5.10;4.10;;;;;;;8.93;90.86;100825.70;181381;1260;58037;-56
2023/05/28 01:09:02;;;;;;;7.70;4.90;;;;;;;8.87;90.63;100823.77;181372;1260;43059;-57
2023/05/28 01:13:07;;;;;;;5.00;4.30;;;;;;;8.82;90.40;100821.96;181440;1260;42992;-58
2023/05/28 01:17:10;;;;;;;7.30;5.40;;;;;;;8.75;90.66;100821.95;181412;1260;43078;-58
2023/05/28 01:21:14;;;;;;;13.70;7.50;;;;;;;8.70;91.20;100819.06;181336;1260;43745;-52
2023/05/28 01:25:18;;;;;;;10.70;6.60;;;;;;;8.68;90.89;100822.17;181386;1265;59343;-55
2023/05/28 01:29:21;;;;;;;11.80;7.60;;;;;;;8.57;90.64;100811.77;181396;1260;43085;-54
2023/05/28 01:33:24;;;;;;;11.60;6.30;;;;;;;8.44;91.61;100807.62;181469;1260;43809;-55
2023/05/28 01:37:27;;;;;;;14.30;7.70;;;;;;;8.38;91.48;100806.36;181565;1260;43086;-55
2023/05/28 01:41:30;;;;;;;9.40;6.10;;;;;;;8.36;90.85;100807.60;181509;1260;43053;-55
2023/05/28 01:45:34;;;;;;;8.40;4.80;;;;;;;8.30;90.46;100804.60;181530;1260;57028;-55
2023/05/28 01:49:38;;;;;;;9.50;5.60;;;;;;;8.21;90.53;100796.34;181425;1260;43561;-57
2023/05/28 01:53:41;;;;;;;9.80;5.80;;;;;;;8.11;90.97;100793.44;181584;1260;43627;-57
2023/05/28 01:57:44;;;;;;;7.60;5.20;;;;;;;8.06;91.85;100789.52;181399;1260;43697;-56
2023/05/28 02:02:03;;;;;;;5.30;4.00;;;;;;;7.92;92.36;100787.02;181517;1260;43047;-56
2023/05/28 02:06:07;;;;;;;9.20;5.10;;;;;;;7.86;91.85;100786.36;181564;1260;58183;-57
2023/05/28 02:10:09;;;;;;;10.50;6.60;;;;;;;7.86;91.74;100786.32;181341;1261;43823;-57
2023/05/28 02:14:16;;;;;;;10.60;5.10;;;;;;;7.88;91.42;100783.23;181522;1260;43347;-56
2023/05/28 02:18:19;;;;;;;7.40;4.50;;;;;;;7.83;91.86;100785.48;181571;1260;43109;-55
2023/05/28 02:22:22;;;;;;;6.40;5.00;;;;;;;7.82;91.48;100784.64;181604;1260;43460;-54
2023/05/28 02:26:25;;;;;;;8.10;5.20;;;;;;;7.77;94.28;100782.67;181407;1260;57437;-56
2023/05/28 02:30:28;;;;;;;12.50;7.50;;;;;;;7.72;93.56;100786.64;181609;1260;43116;-57
2023/05/28 02:34:31;;;;;;;10.50;5.00;;;;;;;7.73;93.72;100783.97;181349;1260;43830;-56
2023/05/28 02:38:36;;;;;;;7.80;4.80;;;;;;;7.71;93.83;100785.33;181450;1260;43744;-54
2023/05/28 02:42:39;;;;;;;16.80;5.70;;;;;;;7.74;94.05;100778.45;181369;1261;43767;-57
2023/05/28 02:46:42;;;;;;;9.10;5.50;;;;;;;7.74;92.98;100778.60;181488;1260;59337;-56
2023/05/28 02:50:45;;;;;;;8.20;5.40;;;;;;;7.72;92.64;100777.34;181471;1260;43374;-56
2023/05/28 02:54:48;;;;;;;12.50;7.40;;;;;;;7.69;93.11;100779.63;181476;1260;43056;-56
2023/05/28 02:58:57;;;;;;;7.50;5.20;;;;;;;7.73;93.10;100779.91;181506;1259;43107;-56
2023/05/28 03:03:00;;;;;;;10.60;6.00;;;;;;;7.76;92.90;100781.14;181616;1259;42940;-56
2023/05/28 03:07:03;;;;;;;7.50;5.50;;;;;;;7.74;92.64;100779.34;181552;1260;58222;-56
2023/05/28 03:11:06;;;;;;;8.20;5.30;;;;;;;7.74;92.83;100779.31;181419;1260;43069;-55
2023/05/28 03:15:09;;;;;;;6.50;4.80;;;;;;;7.76;94.20;100776.55;181494;1260;43891;-56
2023/05/28 03:19:12;;;;;;;8.30;6.00;;;;;;;7.72;95.23;100779.99;181478;1259;43694;-55
2023/05/28 03:23:15;;;;;;;6.10;4.60;;;;;;;7.65;96.70;100784.79;181417;1259;43584;-56
2023/05/28 03:27:18;;;;;;;7.10;4.90;;;;;;;7.62;97.02;100784.48;181461;1259;58496;-58
2023/05/28 03:31:20;;;;;;;8.80;5.60;;;;;;;7.64;97.87;100788.96;181522;1259;43063;-57
2023/05/28 03:35:23;;;;;;;8.50;5.40;;;;;;;7.71;98.61;100797.89;181462;1259;43089;-56
2023/05/28 03:39:26;;;;;;;8.90;6.20;;;;;;;7.79;99.18;100798.60;181517;1260;43466;-58
2023/05/28 03:43:30;;;;;;;6.60;5.80;;;;;;;7.95;99.83;100800.42;181452;1259;43054;-55
2023/05/28 03:47:33;;;;;;;8.40;4.70;;;;;;;8.19;99.46;100801.63;181543;1259;58200;-56
2023/05/28 03:51:36;;;;;;;6.70;5.10;;;;;;;8.37;98.56;100796.19;181422;1260;43217;-56
2023/05/28 03:55:39;;;;;;;4.70;3.80;;;;;;;8.48;97.40;100791.86;181527;1260;42996;-54
2023/05/28 03:59:41;;;;;;;4.20;3.90;;;;;;;8.50;97.61;100789.58;181367;1259;43750;-56
2023/05/28 04:03:44;;;;;;;5.80;4.50;;;;;;;8.52;98.79;100790.15;181511;1260;42993;-57
2023/05/28 04:07:49;;;;;;;7.70;5.90;;;;;;;8.63;99.88;100793.20;181526;1259;58300;-57
2023/05/28 04:11:51;;;;;;;6.90;5.60;;;;;;;8.82;100.00;100790.50;181452;1260;43114;-57
2023/05/28 04:15:55;;;;;;;12.20;5.90;;;;;;;9.08;100.00;100789.36;181301;1257;86109;-90
2023/05/28 04:20:00;;;;;;;9.00;6.10;;;;;;;9.52;100.00;100789.20;181249;1259;44015;-88
2023/05/28 04:24:04;;;;;;;11.50;6.70;;;;;;;10.42;100.00;100786.02;181277;1260;44199;-89
2023/05/28 04:28:08;;;;;;;10.80;6.50;;;;;;;11.47;100.00;100782.67;181225;1259;59863;-91
2023/05/28 04:32:11;;;;;;;15.60;8.10;;;;;;;12.34;95.05;100781.55;181298;1261;44148;-90
2023/05/28 04:36:15;;;;;;;8.50;6.00;;;;;;;13.00;85.93;100769.24;181190;1259;44042;-90
2023/05/28 04:40:19;;;;;;;7.80;6.20;;;;;;;13.38;82.83;100771.13;181147;1259;43730;-90
2023/05/28 04:44:25;;;;;;;11.30;8.30;;;;;;;13.76;82.46;100773.11;181243;1259;44178;-89
2023/05/28 04:48:31;;;;;;;11.80;7.30;;;;;;;14.04;80.83;100769.64;181148;1260;59607;-91
2023/05/28 04:52:35;;;;;;;14.40;9.40;;;;;;;14.21;78.87;100775.20;181128;1260;44337;-90
2023/05/28 04:56:38;;;;;;;11.10;8.90;;;;;;;14.57;77.83;100779.34;181108;1260;43720;-90
2023/05/28 05:00:42;;;;;;;13.10;9.00;;;;;;;15.34;78.28;100774.59;181206;1259;43785;-89
2023/05/28 05:04:45;;;;;;;9.30;7.60;;;;;;;16.14;73.82;100773.50;181202;1259;44141;-90
2023/05/28 05:08:49;;;;;;;10.90;7.40;;;;;;;16.91;71.02;100770.77;181266;1259;61666;-90
2023/05/28 05:12:53;;;;;;;10.20;7.00;;;;;;;17.62;68.02;100772.70;181228;1260;44208;-90
2023/05/28 05:16:56;;;;;;;7.60;5.70;;;;;;;18.28;66.76;100777.31;181120;1259;45908;-91
2023/05/28 05:21:00;;;;;;;7.90;6.60;;;;;;;18.62;64.00;100776.02;181200;1259;43899;-90
2023/05/28 05:25:03;;;;;;;7.20;5.20;;;;;;;18.76;65.57;100774.11;181209;1259;43880;-90
2023/05/28 05:29:07;;;;;;;8.50;6.60;;;;;;;19.07;64.19;100767.39;181228;1259;58678;-90
2023/05/28 05:33:10;;;;;;;13.40;6.20;;;;;;;19.28;62.75;100761.96;181196;1259;43738;-90
2023/05/28 05:37:13;;;;;;;13.30;7.90;;;;;;;19.50;61.81;100756.89;181199;1260;43734;-90
2023/05/28 05:41:17;;;;;;;23.50;18.20;;;;;;;20.02;58.93;100759.52;181195;1260;43918;-90
2023/05/28 05:45:21;;;;;;;59.40;38.10;;;;;;;20.29;57.09;100756.99;181151;1259;43910;-89
2023/05/28 05:49:24;;;;;;;14.70;10.60;;;;;;;20.42;55.15;100756.01;181160;1259;59554;-88
2023/05/28 05:53:28;;;;;;;8.10;6.50;;;;;;;20.53;55.33;100757.48;181152;1259;43731;-87
2023/05/28 05:57:33;;;;;;;11.40;7.40;;;;;;;20.65;56.61;100756.93;181152;1260;44125;-89
2023/05/28 06:01:37;;;;;;;12.10;7.10;;;;;;;20.69;56.81;100755.73;181031;1259;218552;-89
2023/05/28 06:05:40;;;;;;;14.80;11.50;;;;;;;20.56;56.40;100758.04;181194;1260;43872;-89
2023/05/28 06:09:44;;;;;;;13.00;8.90;;;;;;;20.19;56.49;100752.03;181135;1259;59127;-89
2023/05/28 06:13:47;;;;;;;10.30;9.10;;;;;;;20.06;56.50;100752.45;181121;1260;43939;-90
2023/05/28 06:17:51;;;;;;;8.70;6.50;;;;;;;19.98;56.95;100748.27;181258;1260;44142;-90
2023/05/28 06:26:23;;;;;;;14.70;9.30;;;;;;;19.54;59.75;100743.50;179732;1260;43676;-58
2023/05/28 06:30:26;;;;;;;10.50;8.50;;;;;;;19.72;60.15;100743.42;181433;1261;58189;-57
2023/05/28 06:35:30;;;;;;;10.30;6.50;;;;;;;19.79;60.05;100746.98;181384;1261;43089;-57
2023/05/28 06:39:33;;;;;;;15.20;6.60;;;;;;;19.94;58.86;100751.27;181489;1260;43676;-58
2023/05/28 06:43:46;;;;;;;12.30;6.70;;;;;;;20.06;58.08;100750.21;181397;1262;43147;-58
2023/05/28 06:47:49;;;;;;;8.70;5.70;;;;;;;20.09;58.95;100751.96;181378;1261;43812;-57
2023/05/28 06:52:03;;;;;;;10.10;5.70;;;;;;;20.32;59.62;100753.91;181499;1260;58106;-57
2023/05/28 06:56:06;;;;;;;11.10;6.60;;;;;;;20.46;58.37;100752.71;181362;1261;43762;-57
2023/05/28 07:00:16;;;;;;;8.70;6.60;;;;;;;20.49;57.57;100751.77;181395;1260;43701;-57
2023/05/28 07:04:19;;;;;;;8.10;5.40;;;;;;;20.61;55.56;100755.64;181401;1261;43687;-57
2023/05/28 07:08:22;;;;;;;8.80;5.20;;;;;;;20.58;53.18;100756.74;181435;1260;43798;-57
2023/05/28 07:12:55;;;;;;;17.80;6.90;;;;;;;20.57;54.92;100757.15;181383;1261;57925;-57
2023/05/28 07:16:58;;;;;;;12.80;5.80;;;;;;;20.63;55.82;100756.42;181502;1261;43537;-57
2023/05/28 07:21:01;;;;;;;9.80;6.40;;;;;;;20.79;55.44;100750.52;181370;1262;43064;-57
2023/05/28 07:25:05;;;;;;;7.90;5.80;;;;;;;20.86;54.96;100748.26;181310;1262;43375;-58
2023/05/28 07:29:08;;;;;;;7.30;5.30;;;;;;;20.94;55.34;100748.33;181371;1265;43833;-58
2023/05/28 07:33:13;;;;;;;8.20;6.50;;;;;;;20.89;53.49;100745.92;181349;1262;57467;-57
2023/05/28 07:37:16;;;;;;;10.80;7.00;;;;;;;20.69;53.90;100743.14;181361;1260;43047;-57
2023/05/28 07:41:22;;;;;;;8.50;6.30;;;;;;;20.70;55.52;100742.52;181260;1260;84804;-90
2023/05/28 07:45:25;;;;;;;;;;;;;;;20.90;54.55;100733.39;181126;1259;43780;-90
2023/05/28 07:49:29;;;;;;;10.20;6.00;;;;;;;21.02;55.01;100727.59;181120;1260;45438;-89
2023/05/28 07:53:33;;;;;;;9.00;5.90;;;;;;;21.28;55.29;100721.73;181218;1258;58226;-91
2023/05/28 07:57:37;;;;;;;8.90;6.60;;;;;;;21.49;53.15;100719.66;181194;1260;45065;-91
2023/05/28 08:01:42;;;;;;;11.50;6.90;;;;;;;21.46;53.22;100717.59;181237;1259;43978;-92
2023/05/28 08:05:46;;;;;;;8.60;5.90;;;;;;;21.47;52.28;100714.61;181140;1260;44339;-90
2023/05/28 08:09:50;;;;;;;7.50;5.00;;;;;;;21.48;51.89;100714.33;181143;1258;44146;-89
2023/05/28 08:13:54;;;;;;;9.30;5.90;;;;;;;21.55;52.94;100715.45;181183;1257;59588;-89
2023/05/28 08:17:57;;;;;;;10.20;6.40;;;;;;;21.71;52.11;100717.80;181161;1259;43686;-88
2023/05/28 08:22:01;;;;;;;6.90;4.90;;;;;;;21.76;50.94;100717.70;181289;1258;44177;-88
2023/05/28 08:26:04;;;;;;;9.50;4.50;;;;;;;21.74;51.40;100713.77;181209;1258;43998;-88
2023/05/28 08:30:08;;;;;;;8.80;5.20;;;;;;;21.80;51.36;100712.13;181108;1260;43881;-89
2023/05/28 08:34:12;;;;;;;7.30;4.70;;;;;;;21.96;50.58;100711.85;181297;1260;59662;-89
2023/05/28 08:38:15;;;;;;;5.80;4.30;;;;;;;21.99;49.33;100708.30;181046;1258;43738;-88
2023/05/28 08:42:18;;;;;;;7.10;5.40;;;;;;;22.05;49.48;100710.30;181124;1260;44002;-88
2023/05/28 08:46:22;;;;;;;6.20;4.40;;;;;;;22.04;49.64;100706.31;181134;1259;44103;-88
2023/05/28 08:50:28;;;;;;;10.50;4.60;;;;;;;22.00;50.62;100707.48;181182;1258;43852;-88
2023/05/28 08:54:32;;;;;;;8.50;4.20;;;;;;;22.04;49.18;100709.86;181263;1259;58264;-88
2023/05/28 08:58:38;;;;;;;9.90;4.70;;;;;;;21.98;48.53;100705.17;181152;1260;43858;-88
2023/05/28 09:02:42;;;;;;;6.50;4.10;;;;;;;21.95;49.69;100706.67;181049;1259;43770;-88
2023/05/28 09:06:45;;;;;;;5.90;3.60;;;;;;;22.01;47.19;100705.88;181335;1258;43825;-89
2023/05/28 09:10:48;;;;;;;4.10;3.00;;;;;;;22.14;47.53;100705.83;181141;1259;44187;-88
2023/05/28 09:14:53;;;;;;;5.60;3.50;;;;;;;22.06;47.06;100703.47;181172;1260;60733;-87
2023/05/28 09:19:04;;;;;;;4.10;3.00;;;;;;;22.03;47.48;100700.58;181150;1258;43716;-88
2023/05/28 09:23:10;;;;;;;5.30;3.10;;;;;;;22.09;48.30;100699.04;181113;1259;44068;-89
2023/05/28 09:27:17;;;;;;;3.60;2.10;;;;;;;22.02;45.70;100701.09;181176;1259;43776;-89
2023/05/28 09:31:32;;;;;;;3.90;2.80;;;;;;;21.96;44.62;100697.39;181139;1259;44216;-88
2023/05/28 09:35:36;;;;;;;3.70;2.60;;;;;;;21.95;47.64;100697.96;181110;1260;58278;-91
2023/05/28 09:39:40;;;;;;;3.70;2.60;;;;;;;22.06;47.03;100697.58;181127;1260;44093;-91
2023/05/28 09:43:44;;;;;;;4.60;1.70;;;;;;;22.18;46.33;100696.83;181371;1260;44109;-88
2023/05/28 09:47:48;;;;;;;4.50;2.20;;;;;;;22.21;43.74;100698.91;181181;1259;44274;-89
2023/05/28 09:51:53;;;;;;;5.40;2.80;;;;;;;22.21;43.57;100689.70;181259;1258;43759;-89
2023/05/28 09:55:58;;;;;;;6.30;1.70;;;;;;;22.17;44.46;100689.52;181117;1259;57989;-89
2023/05/28 10:00:13;;;;;;;4.60;2.50;;;;;;;22.24;44.18;100690.27;181138;1259;43828;-89
2023/05/28 10:04:20;;;;;;;3.60;2.60;;;;;;;22.18;45.05;100682.70;181087;1259;44521;-89
2023/05/28 10:08:25;;;;;;;3.10;1.80;;;;;;;22.17;44.51;100682.70;181117;1259;43927;-89
2023/05/28 10:16:43;;;;;;;3.20;2.10;;;;;;;22.07;44.57;100676.55;181468;1256;59028;-88
2023/05/28 10:20:47;;;;;;;2.60;2.00;;;;;;;22.03;43.48;100671.00;181346;1259;43855;-90
2023/05/28 10:24:57;;;;;;;3.10;2.50;;;;;;;21.93;44.09;100671.33;181293;1258;43785;-90
2023/05/28 10:29:07;;;;;;;3.70;2.30;;;;;;;21.77;44.33;100667.30;181388;1260;49762;-90
2023/05/28 10:33:16;;;;;;;4.70;2.20;;;;;;;21.75;45.76;100662.92;181265;1259;43956;-90
2023/05/28 10:37:24;;;;;;;5.10;2.70;;;;;;;21.85;45.27;100664.25;181159;1257;60836;-89
2023/05/28 10:41:33;;;;;;;3.40;1.80;;;;;;;21.84;43.41;100658.39;181223;1259;43652;-89
2023/05/28 10:45:38;;;;;;;9.00;3.20;;;;;;;21.88;45.71;100653.44;181207;1257;43891;-89
2023/05/28 10:50:10;;;;;;;4.80;4.30;;;;;;;21.83;44.07;100653.10;181161;1258;43926;-89
2023/05/28 10:54:37;;;;;;;6.50;2.90;;;;;;;21.82;43.72;100656.60;181308;1257;43889;-88
2023/05/28 10:58:42;;;;;;;8.90;3.20;;;;;;;21.87;44.99;100651.92;181207;1258;59428;-88
2023/05/28 11:02:50;;;;;;;3.50;1.60;;;;;;;21.99;45.41;100648.59;181160;1258;43934;-86
2023/05/28 11:06:56;;;;;;;5.30;2.20;;;;;;;22.22;44.37;100640.80;181197;1258;44005;-87
2023/05/28 11:11:00;;;;;;;7.10;2.80;;;;;;;22.43;46.99;100639.80;181199;1257;43961;-87
2023/05/28 11:15:05;;;;;;;4.10;2.60;;;;;;;22.55;45.21;100637.24;181185;1259;43745;-87
2023/05/28 11:19:09;;;;;;;8.30;3.40;;;;;;;22.66;44.99;100632.11;181189;1259;59664;-87
2023/05/28 11:23:16;;;;;;;4.30;3.10;;;;;;;22.73;45.63;100630.83;181036;1260;44001;-86
2023/05/28 11:27:23;;;;;;;4.10;2.10;;;;;;;22.75;44.66;100628.76;181039;1259;44248;-85
2023/05/28 11:31:27;;;;;;;5.90;3.40;;;;;;;22.81;43.61;100624.42;181018;1259;43999;-86
2023/05/28 11:35:30;;;;;;;7.40;4.10;;;;;;;22.72;44.68;100620.35;181078;1259;44082;-86
2023/05/28 11:39:34;;;;;;;4.50;2.20;;;;;;;22.76;43.55;100618.23;180984;1259;58977;-86
2023/05/28 11:43:38;;;;;;;4.60;1.70;;;;;;;22.79;42.60;100616.64;181011;1262;44165;-86
2023/05/28 11:47:46;;;;;;;5.70;2.60;;;;;;;22.88;45.06;100612.40;181144;1259;43878;-86
2023/05/28 11:51:52;;;;;;;2.30;1.40;;;;;;;22.86;43.41;100605.98;181042;1259;43762;-86
2023/05/28 11:55:56;;;;;;;4.30;1.60;;;;;;;22.91;47.41;100593.13;181220;1260;43869;-86
2023/05/28 12:00:18;;;;;;;2.80;1.80;;;;;;;23.07;45.90;100594.52;181200;1259;61089;-86
2023/05/28 12:04:25;;;;;;;3.20;1.30;;;;;;;22.95;43.24;100595.16;181119;1259;43742;-86
2023/05/28 12:08:28;;;;;;;3.60;2.20;;;;;;;22.92;43.14;100590.81;181148;1259;44086;-87
2023/05/28 12:12:33;;;;;;;10.50;2.50;;;;;;;22.80;43.53;100588.23;181071;1259;44071;-87
2023/05/28 12:16:47;;;;;;;4.20;1.70;;;;;;;22.87;43.33;100587.86;181092;1259;43987;-87
2023/05/28 12:20:51;;;;;;;1.50;1.10;;;;;;;23.03;42.67;100584.81;181237;1258;57550;-88
2023/05/28 12:24:55;;;;;;;5.80;2.30;;;;;;;23.11;41.40;100585.27;181198;1258;43902;-87
2023/05/28 12:28:59;;;;;;;2.20;1.40;;;;;;;23.13;40.89;100581.90;181218;1258;44091;-87
2023/05/28 12:33:02;;;;;;;4.20;1.70;;;;;;;23.18;41.71;100578.88;181183;1259;43927;-87
2023/05/28 12:37:06;;;;;;;4.60;2.20;;;;;;;23.22;40.19;100573.80;181204;1258;43768;-88
2023/05/28 12:41:10;;;;;;;2.40;1.30;;;;;;;23.18;41.29;100573.58;181254;1258;58330;-87
2023/05/28 12:45:13;;;;;;;4.50;2.00;;;;;;;23.20;41.90;100567.23;181198;1259;43784;-88
2023/05/28 12:49:17;;;;;;;4.40;1.70;;;;;;;23.28;44.91;100563.70;181179;1259;43805;-87
2023/05/28 12:53:20;;;;;;;1.80;1.10;;;;;;;23.38;42.46;100561.14;181258;1258;44097;-88
2023/05/28 12:57:23;;;;;;;2.80;1.60;;;;;;;23.48;41.60;100556.74;181207;1258;43750;-87
2023/05/28 13:01:27;;;;;;;2.30;1.30;;;;;;;23.47;40.85;100554.16;181068;1259;58515;-87
2023/05/28 13:05:33;;;;;;;5.70;3.50;;;;;;;23.61;44.67;100550.56;181218;1258;43157;-87
2023/05/28 13:09:36;;;;;;;4.90;4.40;;;;;;;23.79;44.25;100548.91;181373;1259;43719;-88
2023/05/28 13:13:40;;;;;;;3.10;1.40;;;;;;;23.88;42.24;100542.06;181198;1259;43838;-87
2023/05/28 13:17:44;;;;;;;2.20;0.90;;;;;;;23.76;40.30;100538.00;181333;1257;43866;-87
2023/05/28 13:21:48;;;;;;;2.20;1.40;;;;;;;23.60;41.31;100537.31;181268;1257;59324;-88
2023/05/28 13:25:51;;;;;;;14.60;1.80;;;;;;;23.67;41.69;100535.40;181170;1259;44172;-88
2023/05/28 13:29:54;;;;;;;4.20;1.60;;;;;;;23.63;41.51;100532.55;181227;1257;43825;-88
2023/05/28 13:33:58;;;;;;;4.20;2.40;;;;;;;23.65;41.24;100524.95;181205;1260;43844;-87
2023/05/28 13:38:04;;;;;;;3.80;1.40;;;;;;;23.75;42.55;100521.32;181213;1258;43717;-87
2023/05/28 13:42:08;;;;;;;3.20;2.00;;;;;;;23.83;42.71;100522.30;181247;1257;59206;-88
2023/05/28 13:46:11;;;;;;;2.70;1.30;;;;;;;23.95;43.77;100518.83;181211;1259;43714;-88
2023/05/28 13:50:15;;;;;;;5.80;2.00;;;;;;;24.05;42.80;100510.29;181143;1258;43860;-87
2023/05/28 13:54:18;;;;;;;5.50;1.70;;;;;;;24.11;41.00;100507.77;181376;1259;44183;-88
2023/05/28 13:58:23;;;;;;;1.30;0.80;;;;;;;24.22;44.36;100503.29;181277;1259;43768;-87
2023/05/28 14:02:26;;;;;;;2.80;1.00;;;;;;;24.41;42.27;100497.74;181205;1259;58213;-88
2023/05/28 14:06:32;;;;;;;2.00;1.00;;;;;;;24.57;43.75;100493.55;181256;1258;43818;-88
2023/05/28 14:10:35;;;;;;;2.00;1.20;;;;;;;24.72;45.71;100488.41;181249;1259;43804;-87
2023/05/28 14:14:39;;;;;;;4.00;1.50;;;;;;;24.67;41.97;100478.89;181205;1258;43775;-87
2023/05/28 14:18:45;;;;;;;3.70;1.80;;;;;;;24.69;43.19;100476.27;181202;1258;43790;-88
2023/05/28 14:22:49;;;;;;;1.60;1.10;;;;;;;24.77;40.70;100473.71;181168;1258;58334;-87
2023/05/28 14:26:52;;;;;;;3.40;1.70;;;;;;;24.75;39.52;100469.95;181237;1258;43859;-88
2023/05/28 14:30:56;;;;;;;3.60;1.60;;;;;;;24.86;40.38;100465.31;181169;1258;43959;-88
2023/05/28 14:35:00;;;;;;;3.90;1.40;;;;;;;25.08;42.60;100456.38;181133;1260;43642;-88
2023/05/28 14:39:04;;;;;;;2.00;1.00;;;;;;;25.29;42.54;100450.37;181296;1258;44102;-88
2023/05/28 14:43:07;;;;;;;14.00;2.90;;;;;;;25.31;42.44;100443.95;181379;1257;57962;-87
2023/05/28 14:47:11;;;;;;;6.40;1.70;;;;;;;25.27;40.60;100441.10;181140;1259;43521;-88
2023/05/28 14:51:14;;;;;;;11.60;4.30;;;;;;;25.23;43.35;100442.46;181323;1258;43788;-87
2023/05/28 14:55:18;;;;;;;3.70;1.50;;;;;;;25.24;43.58;100444.26;181209;1258;43793;-87
2023/05/28 14:59:23;;;;;;;6.50;1.30;;;;;;;25.26;42.29;100442.23;181148;1257;43790;-88
2023/05/28 15:03:27;;;;;;;2.20;1.50;;;;;;;25.19;41.45;100444.54;181330;1258;58003;-87
2023/05/28 15:07:31;;;;;;;2.30;1.10;;;;;;;25.20;40.44;100443.23;181104;1259;43921;-87
2023/05/28 15:11:35;;;;;;;4.20;1.90;;;;;;;25.15;42.09;100443.30;181284;1257;43935;-87
2023/05/28 15:15:39;;;;;;;5.10;1.30;;;;;;;25.13;40.56;100440.84;181080;1259;43857;-87
2023/05/28 15:19:43;;;;;;;1.90;1.50;;;;;;;24.97;42.17;100442.36;181060;1259;43816;-88
2023/05/28 15:23:46;;;;;;;3.20;1.30;;;;;;;25.00;44.20;100444.66;181265;1258;60337;-87
2023/05/28 15:27:51;;;;;;;1.60;1.50;;;;;;;25.05;44.18;100442.45;181176;1259;43783;-87
2023/05/28 15:31:56;;;;;;;3.90;1.60;;;;;;;25.03;43.76;100442.25;181105;1259;43967;-88
2023/05/28 15:36:00;;;;;;;4.30;1.30;;;;;;;25.05;45.36;100437.02;181153;1259;43971;-87
2023/05/28 15:40:04;;;;;;;2.50;1.50;;;;;;;25.05;45.25;100432.02;181151;1259;43764;-87
2023/05/28 15:44:08;;;;;;;9.90;1.90;;;;;;;25.05;44.39;100431.06;181151;1259;58086;-87
2023/05/28 15:48:11;;;;;;;4.30;1.60;;;;;;;25.10;45.31;100432.41;181105;1259;43940;-87
2023/05/28 15:52:14;;;;;;;4.60;1.30;;;;;;;25.10;46.25;100432.74;181086;1259;43755;-87
2023/05/28 15:56:18;;;;;;;2.40;1.30;;;;;;;25.10;46.80;100428.39;181060;1259;43732;-87
2023/05/28 16:00:22;;;;;;;1.50;0.80;;;;;;;25.03;45.01;100429.77;181122;1259;43839;-88
2023/05/28 16:04:28;;;;;;;4.00;1.70;;;;;;;25.04;45.84;100428.09;181141;1259;58449;-87
2023/05/28 16:08:31;;;;;;;1.40;0.70;;;;;;;24.98;45.09;100426.41;181136;1259;44052;-88
2023/05/28 16:12:38;;;;;;;10.80;1.50;;;;;;;24.97;45.97;100426.48;181021;1259;44021;-87
2023/05/28 16:16:45;;;;;;;2.80;1.20;;;;;;;24.87;46.49;100421.95;181158;1259;43888;-88
2023/05/28 16:20:49;;;;;;;20.50;3.00;;;;;;;24.68;47.41;100418.84;181062;1259;43837;-88
2023/05/28 16:24:52;;;;;;;4.60;1.90;;;;;;;24.62;46.94;100421.84;181157;1258;59853;-88
2023/05/28 16:28:56;;;;;;;3.50;1.10;;;;;;;24.53;48.27;100414.92;180995;1259;44057;-87
2023/05/28 16:33:00;;;;;;;3.00;2.00;;;;;;;24.23;51.50;100414.79;180997;1259;43779;-87
2023/05/28 16:37:04;;;;;;;5.90;2.20;;;;;;;24.04;51.06;100413.65;181118;1259;43849;-87
2023/05/28 16:41:08;;;;;;;15.10;4.40;;;;;;;23.97;52.02;100416.36;181057;1259;44065;-86
2023/05/28 16:45:12;;;;;;;6.40;1.60;;;;;;;23.82;50.35;100413.20;181108;1260;60267;-87
2023/05/28 16:49:19;;;;;;;12.80;4.50;;;;;;;23.69;50.57;100417.46;181132;1259;43931;-86
2023/05/28 16:53:24;;;;;;;6.80;2.10;;;;;;;23.62;51.43;100416.31;181059;1261;44059;-87
2023/05/28 16:57:27;;;;;;;;;;;;;;;23.54;52.20;100414.84;181084;1259;44001;-85
2023/05/28 17:01:33;;;;;;;28.30;5.30;;;;;;;23.45;52.46;100413.34;181221;1259;43543;-87
2023/05/28 17:05:36;;;;;;;;;;;;;;;23.35;52.22;100412.66;181075;1259;59181;-87
2023/05/28 17:09:40;;;;;;;4.20;1.60;;;;;;;23.24;51.85;100417.34;181110;1262;44051;-87
2023/05/28 17:13:43;;;;;;;4.40;1.20;;;;;;;23.15;52.19;100415.65;180992;1258;43766;-88
2023/05/28 17:17:47;;;;;;;5.00;2.30;;;;;;;23.03;53.00;100415.00;181129;1259;44068;-88
2023/05/28 17:21:51;;;;;;;2.40;1.20;;;;;;;22.90;53.79;100418.69;181121;1259;43802;-88
2023/05/28 17:25:54;;;;;;;4.00;1.60;;;;;;;22.75;55.33;100414.00;181068;1258;58237;-88
2023/05/28 17:29:58;;;;;;;5.50;1.40;;;;;;;22.62;56.22;100415.21;181138;1257;44090;-87
2023/05/28 17:34:03;;;;;;;2.00;1.50;;;;;;;22.49;58.39;100417.81;181079;1259;43879;-88
2023/05/28 17:38:07;;;;;;;6.40;1.80;;;;;;;22.30;59.37;100419.04;181080;1259;44028;-88
2023/05/28 17:42:16;;;;;;;4.30;1.10;;;;;;;22.14;59.06;100419.36;181205;1258;44058;-88
2023/05/28 17:46:34;;;;;;;2.80;1.60;;;;;;;21.97;59.64;100416.17;181118;1260;58367;-88
2023/05/28 17:50:37;;;;;;;2.60;1.40;;;;;;;21.76;60.30;100413.52;181141;1260;43992;-88
2023/05/28 17:54:42;;;;;;;2.70;1.60;;;;;;;21.56;61.75;100405.18;181032;1260;43953;-88
2023/05/28 17:58:46;;;;;;;4.20;2.00;;;;;;;21.37;62.59;100402.94;181107;1258;49180;-88
2023/05/28 18:02:51;;;;;;;14.40;2.80;;;;;;;21.11;62.78;100403.57;180891;1259;210734;-88
2023/05/28 18:33:55;;;;;;;7.90;2.00;;;;;;;18.48;68.06;100434.75;181348;1260;58143;-58
2023/05/28 18:38:26;;;;;;;19.80;4.80;;;;;;;18.17;67.62;100435.16;181374;1260;43729;-57
2023/05/28 18:42:29;;;;;;;20.90;4.40;;;;;;;17.88;67.34;100435.91;181341;1260;43060;-57
2023/05/28 18:46:32;;;;;;;31.40;7.30;;;;;;;17.61;69.09;100436.77;181453;1260;43017;-57
2023/05/28 18:50:36;;;;;;;22.10;6.70;;;;;;;17.33;70.13;100438.01;181410;1260;43532;-57
2023/05/28 18:54:39;;;;;;;16.00;5.60;;;;;;;17.13;72.38;100441.21;181365;1260;59917;-57
2023/05/28 18:58:42;;;;;;;12.10;3.80;;;;;;;16.96;71.88;100445.28;181379;1260;43067;-58
2023/05/28 19:02:45;;;;;;;14.80;4.40;;;;;;;16.84;72.37;100445.44;181404;1260;42998;-57
2023/05/28 19:11:55;;;;;;;5.50;2.80;;;;;;;16.47;73.54;100460.77;181368;1260;43059;-55
2023/05/28 19:15:58;;;;;;;4.80;2.40;;;;;;;16.30;73.29;100466.14;181384;1260;57843;-57
2023/05/28 19:20:01;;;;;;;4.10;2.70;;;;;;;16.14;72.50;100467.16;181374;1260;43757;-57
2023/05/28 19:24:04;;;;;;;2.70;1.60;;;;;;;16.02;72.50;100467.91;181388;1260;43304;-57
2023/05/28 19:28:07;;;;;;;6.50;2.90;;;;;;;15.92;73.74;100473.00;181488;1260;43714;-57